Van Nuys, CA (91407)

1:05 AM PST on February 14, 2016 (GMT -0800)
Bassett St. and Nobel | | Change Station
CLOSE
Current Station
Personal Weather Station
Location: Los Angeles, CA
Elevation: 755 ft
Nearby Weather Stations
Active Advisory: Wind Advisory Active Notice: Public Information Statement

Elev 755 ft 34.20 °N, 118.46 °W | Updated 9 minutes ago

Clear
Clear
71.2 °F
Feels Like 76 °F
N
1.7
Wind Variable Wind from NW

Today
High -- | Low -- °F
--% Chance of Precip.
Yesterday
High -- | Low -- °F
Precip. -- in
Pressure 30.04 in
Visibility 10.0 miles
Clouds Clear
Heat Index 76 °F
Dew Point 36 °F
Humidity 27%
Rainfall 0.00 in
Snow Depth Not available.
6:40 AM 5:36 PM
Waxing Crescent, 39% visible
METAR KVNY 140851Z AUTO 33013G21KT 10SM CLR 22/M04 A3006 RMK AO2 SLP171 T02171039 56003
Pressure 30.04 in
Visibility 10.0 miles
Clouds Clear
Heat Index 76 °F
Dew Point 36 °F
Humidity 27%
Rainfall 0.00 in
Snow Depth Not available.
6:40 AM 5:36 PM
Waxing Crescent, 39% visible
METAR KVNY 140851Z AUTO 33013G21KT 10SM CLR 22/M04 A3006 RMK AO2 SLP171 T02171039 56003

10-Day Weather Forecast

Almanac

Astronomy

Feb. 14, 2016 Rise Set
Actual Time
Civil Twilight
Nautical Twilight
Astronomical Twilight
Moon
Length of Visible Light
Length of Day
Tomorrow will be .
, % of the Moon is Illuminated

Today's Extremes

State Highs State Lows

Community

WunderPhotos

Upload Photos

1,892,763 photos uploaded!

WunderBlog® & News

Nearby

Air Quality

  Air Quality AQ Index Pollutant
Not available.

Snow Depth

Station Depth Elevation

Earthquake Activity

City Distance Mag. Time & Date
Minimum magnitude displayed is 2.5.

Coastal Water Temperatures

Place Temperature

Stations

Nearby Weather Stations

Station Location Temp. Windchill Dew Point Humidity Wind Precip. Elev Updated Type
                   

Watches & Warnings

Wind Advisory
Issued: 9:53 PM PST Feb. 13, 2016 – National Weather Service

... Wind Advisory remains in effect until 3 PM PST Sunday...

* winds and timing... areas of north winds increasing to 15 to 25
mph with gusts to 40 mph... shifting to the northeast on
Sunday.

* Impacts... major roadways that could be affected include
interstates 5 and 405... as well as highways 101 and 118.

Precautionary/preparedness actions...

When driving... use extra caution. Be prepared for sudden gusty
cross winds.